| time (UTC) | temp F | wind direction | speed knots | gust knots | rain 1hr in | rain 24hr in | rain mn in | humidity % | barometer mb |
| 20260505093053 | 51 | 0 | 0.0 | 2.6 | 0.00 | 0.00 | 0.00 | 90 | 1013.9 |
| 20260505091552 | 51 | 0 | 0.0 | 0.9 | 0.00 | 0.00 | 0.00 | 90 | 1013.9 |
| 20260505090058 | 51 | 0 | 0.0 | 1.7 | 0.00 | 0.00 | 0.00 | 90 | 1013.7 |
| 20260505084555 | 52 | 0 | 0.0 | 0.0 | 0.00 | 0.00 | 0.00 | 89 | 1013.5 |
| 20260505083102 | 53 | 0 | 0.0 | 1.7 | 0.00 | 0.00 | 0.00 | 88 | 1013.5 |
| 20260505081557 | 53 | 0 | 0.0 | 0.9 | 0.00 | 0.00 | 0.00 | 87 | 1013.4 |
| 20260505080056 | 53 | 0 | 0.0 | 0.0 | 0.00 | 0.00 | 0.00 | 88 | 1013.3 |
| 20260505074552 | 53 | 0 | 0.0 | 0.0 | 0.00 | 0.00 | 0.00 | 87 | 1013.2 |
| 20260505073108 | 53 | 0 | 0.0 | 1.7 | 0.00 | 0.00 | 0.00 | 86 | 1013.0 |
| 20260505071605 | 53 | 0 | 0.0 | 0.9 | 0.00 | 0.00 | 0.00 | 85 | 1012.9 |
| 20260505070055 | 54 | 0 | 0.0 | 0.0 | 0.00 | 0.00 | 0.00 | 84 | 1012.7 |
| 20260505064559 | 54 | 225 | 0.0 | 1.7 | 0.00 | 0.00 | 0.00 | 84 | 1012.5 |
| 20260505063055 | 55 | 0 | 0.0 | 2.6 | 0.00 | 0.00 | 0.00 | 83 | 1012.4 |
| 20260505061604 | 55 | 0 | 0.0 | 2.6 | 0.00 | 0.00 | 0.00 | 82 | 1012.1 |
| 20260505054601 | 56 | 202 | 0.9 | 3.5 | 0.00 | 0.00 | 0.00 | 81 | 1012.1 |
| 20260505053112 | 57 | 0 | 0.0 | 1.7 | 0.00 | 0.00 | 0.00 | 80 | 1012.0 |
| 20260505051556 | 58 | 196 | 0.0 | 2.6 | 0.00 | 0.00 | 0.00 | 79 | 1011.9 |
| 20260505041612 | 63 | 0 | 0.9 | 5.2 | 0.00 | 0.00 | 0.00 | 73 | 1011.2 |
| 20260505040057 | 65 | 0 | 0.9 | 4.3 | 0.00 | 0.00 | 0.00 | 70 | 1010.9 |
| 20260505034549 | 67 | 267 | 0.9 | 5.2 | 0.00 | 0.00 | 0.00 | 63 | 1010.8 |
| 20260505033053 | 69 | 0 | 0.0 | 6.1 | 0.00 | 0.00 | 0.00 | 63 | 1010.4 |
| 20260505031600 | 70 | 250 | 0.0 | 3.5 | 0.00 | 0.00 | 0.00 | 64 | 1010.2 |
| 20260505030054 | 71 | 258 | 0.0 | 2.6 | 0.00 | 0.00 | 0.00 | 63 | 1010.1 |
| 20260505024555 | 72 | 236 | 1.7 | 5.2 | 0.00 | 0.00 | 0.00 | 62 | 1009.9 |
| 20260505023055 | 72 | 192 | 0.9 | 5.2 | 0.00 | 0.00 | 0.00 | 63 | 1009.7 |
| 20260505021555 | 72 | 0 | 0.9 | 6.1 | 0.00 | 0.00 | 0.00 | 62 | 1009.6 |
| 20260505020053 | 74 | 192 | 0.9 | 6.1 | 0.00 | 0.00 | 0.00 | 61 | 1009.6 |
| 20260505014553 | 74 | 276 | 0.9 | 7.8 | 0.00 | 0.00 | 0.00 | 61 | 1009.5 |
| 20260505013056 | 74 | 170 | 2.6 | 7.8 | 0.00 | 0.00 | 0.00 | 60 | 1009.5 |
| 20260505011551 | 74 | 232 | 3.5 | 8.7 | 0.00 | 0.00 | 0.00 | 60 | 1009.6 |
| 20260505010054 | 75 | 173 | 1.7 | 8.7 | 0.00 | 0.00 | 0.00 | 60 | 1009.7 |
| 20260505004552 | 75 | 184 | 0.9 | 6.1 | 0.00 | 0.00 | 0.00 | 61 | 1009.8 |
| 20260505003059 | 75 | 236 | 3.5 | 8.7 | 0.00 | 0.00 | 0.00 | 61 | 1009.8 |
| 20260505001559 | 75 | 194 | 3.5 | 9.6 | 0.00 | 0.00 | 0.00 | 63 | 1009.9 |
| 20260505000107 | 75 | 231 | 4.3 | 12.2 | 0.00 | 0.00 | 0.00 | 62 | 1010.0 |
| 20260504234624 | 75 | 183 | 4.3 | 10.4 | 0.00 | 0.00 | 0.00 | 61 | 1009.9 |
| 20260504233058 | 76 | 147 | 2.6 | 7.0 | 0.00 | 0.00 | 0.00 | 61 | 1010.1 |
| 20260504231602 | 75 | 231 | 2.6 | 9.6 | 0.00 | 0.00 | 0.00 | 62 | 1010.2 |
| 20260504230057 | 75 | 216 | 3.5 | 7.8 | 0.00 | 0.00 | 0.00 | 60 | 1010.3 |
| 20260504224549 | 74 | 184 | 1.7 | 8.7 | 0.00 | 0.00 | 0.00 | 61 | 1010.6 |
| 20260504223053 | 74 | 163 | 1.7 | 7.8 | 0.00 | 0.00 | 0.00 | 61 | 1010.8 |
| 20260504221600 | 73 | 157 | 2.6 | 10.4 | 0.00 | 0.00 | 0.00 | 63 | 1011.0 |
| 20260504220056 | 73 | 166 | 2.6 | 8.7 | 0.00 | 0.00 | 0.00 | 63 | 1011.1 |
| 20260504214554 | 72 | 250 | 4.3 | 8.7 | 0.00 | 0.00 | 0.00 | 64 | 1011.2 |
| 20260504213054 | 72 | 188 | 0.9 | 8.7 | 0.00 | 0.00 | 0.00 | 64 | 1011.4 |
| 20260504211553 | 71 | 227 | 0.9 | 5.2 | 0.00 | 0.00 | 0.00 | 64 | 1011.6 |
| 20260504210109 | 70 | 256 | 1.7 | 8.7 | 0.00 | 0.00 | 0.00 | 64 | 1012.0 |
| 20260504204601 | 70 | 169 | 0.9 | 6.1 | 0.00 | 0.00 | 0.00 | 64 | 1012.1 |
| 20260504203053 | 68 | 199 | 1.7 | 7.0 | 0.00 | 0.00 | 0.00 | 66 | 1012.3 |
| 20260504201559 | 68 | 148 | 2.6 | 6.1 | 0.00 | 0.00 | 0.00 | 66 | 1012.5 |
| 20260504200100 | 67 | 52 | 2.6 | 7.8 | 0.00 | 0.00 | 0.00 | 68 | 1012.6 |
| 20260504194609 | 66 | 209 | 0.9 | 5.2 | 0.00 | 0.00 | 0.00 | 69 | 1012.7 |
| 20260504193058 | 65 | 169 | 1.7 | 6.1 | 0.00 | 0.00 | 0.00 | 70 | 1012.8 |
| 20260504191555 | 64 | 244 | 1.7 | 7.8 | 0.00 | 0.00 | 0.00 | 72 | 1013.0 |
| 20260504190125 | 62 | 225 | 1.7 | 7.0 | 0.00 | 0.00 | 0.00 | 75 | 1013.0 |
| 20260504184557 | 62 | 0 | 1.7 | 7.8 | 0.00 | 0.00 | 0.00 | 74 | 1013.3 |
| 20260504183054 | 62 | 183 | 1.7 | 6.1 | 0.00 | 0.00 | 0.00 | 74 | 1013.2 |
| 20260504181558 | 61 | 185 | 1.7 | 8.7 | 0.00 | 0.00 | 0.00 | 76 | 1013.2 |
| 20260504180201 | 61 | 174 | 0.9 | 8.7 | 0.00 | 0.00 | 0.00 | 75 | 1013.3 |
| 20260504174555 | 61 | 126 | 1.7 | 7.0 | 0.00 | 0.00 | 0.00 | 77 | 1013.3 |
| 20260504173108 | 59 | 160 | 0.9 | 7.8 | 0.00 | 0.00 | 0.00 | 80 | 1013.2 |
| 20260504171551 | 58 | 209 | 2.6 | 7.0 | 0.00 | 0.00 | 0.00 | 81 | 1013.1 |
| 20260504120112 | 55 | 0 | 2.6 | 8.7 | 0.00 | 0.00 | 0.00 | 84 | 1010.2 |